Hauptseite
METAR-TAF:

METAR-TAF

Flughäfen :

Aupaluk, Québec, Kanada

Breite: 59-17-48N, Länge: 069-35-59W, Höhe: 35 m

Beobachtung

Neuester Wetterbericht von vor 53 Minuten, um 18:00 UTC
Wind 14 kt aus West
Temperatur -18°C
Luftfeuchtigkeit 59%
Luftdruck 1015 hPa
Sichtweite: 24.1 km
Leicht bewölkt in der Höhe von 6000 ft
Leicht bewölkt in der Höhe von 24000 ft

METAR: CYLA 181800Z 27014KT 15SM FEW060 FEW240 M18/M24 A2997 RMK SC1CI1 SC TR SLP156

Zeit: 14:53 (18:53 UTC)


TAF: fehlend

Wetterbeobachtungen und Prognosen von mehr als 4000 Flughäfen (METAR und TAF Bericht).

Die verfügbaren Stationen werden durch gelbe und rote Markierungen auf der Karte dargestellt.

Führen Sie die Maus auf sie, um den Namen der Station zu sehen.

Darauf klicken, um die Beobachtung von Wetterbeobachtungen und Prognosen zu sehen.

Um die Karte zu ändern : klicken Sie auf den grünen Tasten mit einem schwarzen Kreuz Zum Vergrößern, auf den grünen Button mit einem Gedankenstrich zu verkleinern, oder auf die grünen Pfeile für benachbarte Karten.


METAR-TAF: